Time;durP1;ratioP1;P1;durP2;ratioP2;P2;SDS_P1;SDS_P2;PMS_P1;PMS_P2;Temp;Humidity;BMP_temperature;BMP_pressure;BME280_temperature;BME280_humidity;BME280_pressure;Samples;Min_cycle;Max_cycle;Signal;HPM_P1;HPM_P2
2022/10/04 00:01:52;;;;;;;12.63;3.00;;;14.30;99.90;;;;;;5033349;28;20933;-50
2022/10/04 00:04:24;;;;;;;8.27;2.33;;;14.50;99.90;;;;;;5033546;28;20522;-49
2022/10/04 00:06:59;;;;;;;10.13;2.70;;;14.50;99.90;;;;;;5033661;28;20454;-48
2022/10/04 00:09:32;;;;;;;8.07;2.43;;;14.50;99.90;;;;;;5033411;28;20546;-49
2022/10/04 00:12:00;;;;;;;11.97;3.63;;;14.70;99.90;;;;;;5033484;28;20796;-50
2022/10/04 00:14:31;;;;;;;15.77;3.50;;;14.50;99.90;;;;;;5033450;28;20439;-49
2022/10/04 00:16:59;;;;;;;9.73;3.07;;;14.30;99.90;;;;;;5033454;28;20486;-49
2022/10/04 00:19:39;;;;;;;17.53;2.70;;;14.00;99.90;;;;;;5032809;28;20456;-48
2022/10/04 00:22:21;;;;;;;8.13;2.43;;;14.40;99.90;;;;;;5033221;28;20486;-48
2022/10/04 00:25:18;;;;;;;11.60;3.10;;;14.40;99.90;;;;;;5033525;28;20453;-49
2022/10/04 00:28:27;;;;;;;10.30;3.40;;;14.50;99.90;;;;;;5033071;28;20462;-49
2022/10/04 00:31:16;;;;;;;16.40;3.13;;;14.50;99.90;;;;;;5033243;28;20442;-49
2022/10/04 00:33:45;;;;;;;7.77;2.90;;;14.40;99.90;;;;;;5033034;28;20438;-49
2022/10/04 00:36:47;;;;;;;10.40;2.87;;;14.50;99.90;;;;;;5033085;28;20432;-50
2022/10/04 00:39:25;;;;;;;16.07;2.93;;;14.40;99.90;;;;;;4971676;28;21078;-48
2022/10/04 00:42:05;;;;;;;10.20;3.10;;;14.50;99.90;;;;;;4971939;28;20469;-48
2022/10/04 00:44:38;;;;;;;13.57;3.27;;;13.90;99.90;;;;;;4971900;28;20449;-49
2022/10/04 00:47:22;;;;;;;10.20;3.90;;;14.00;99.90;;;;;;4971756;28;20433;-49
2022/10/04 00:49:54;;;;;;;12.20;2.50;;;14.40;99.90;;;;;;4971249;28;20886;-49
2022/10/04 00:52:25;;;;;;;7.00;2.33;;;14.60;99.90;;;;;;4955305;28;20516;-49
2022/10/04 00:54:57;;;;;;;14.37;4.00;;;14.60;99.90;;;;;;4971614;28;20542;-49
2022/10/04 00:57:27;;;;;;;12.87;3.80;;;14.40;99.90;;;;;;4955189;28;20482;-49
2022/10/04 00:59:58;;;;;;;12.87;3.00;;;14.50;99.90;;;;;;4971049;28;20449;-48
2022/10/04 01:02:29;;;;;;;8.80;2.70;;;14.40;99.90;;;;;;4971321;28;20437;-49
2022/10/04 01:05:00;;;;;;;13.30;3.10;;;14.40;99.90;;;;;;4971260;28;20540;-49
2022/10/04 01:07:31;;;;;;;11.17;2.97;;;14.50;99.90;;;;;;4971166;28;20430;-48
2022/10/04 01:10:20;;;;;;;11.07;3.43;;;14.50;99.90;;;;;;4996366;28;20963;-48
2022/10/04 01:12:52;;;;;;;9.27;2.50;;;14.30;99.90;;;;;;5032419;28;20492;-49
2022/10/04 01:15:28;;;;;;;5.30;2.67;;;14.70;99.90;;;;;;5014287;28;20459;-49
2022/10/04 01:18:10;;;;;;;11.07;3.43;;;14.10;99.90;;;;;;5032104;28;20988;-49
2022/10/04 01:20:40;;;;;;;12.30;3.40;;;14.40;99.90;;;;;;5031752;28;20820;-49
2022/10/04 01:23:10;;;;;;;9.83;2.97;;;14.20;99.90;;;;;;5032248;28;20447;-48
2022/10/04 01:25:45;;;;;;;9.10;2.87;;;14.40;99.90;;;;;;5032071;28;20434;-48
2022/10/04 01:28:11;;;;;;;9.80;2.70;;;14.40;99.90;;;;;;5031872;28;20463;-48
2022/10/04 01:30:38;;;;;;;8.53;2.70;;;14.30;99.90;;;;;;5031566;28;20435;-48
2022/10/04 01:33:06;;;;;;;9.33;2.60;;;14.50;99.90;;;;;;5031856;28;20953;-47
2022/10/04 01:35:34;;;;;;;9.07;3.70;;;14.60;99.90;;;;;;5031743;28;20431;-49
2022/10/04 01:38:02;;;;;;;16.20;3.30;;;14.30;99.90;;;;;;5031664;28;20536;-48
2022/10/04 01:40:31;;;;;;;8.57;2.50;;;14.20;99.90;;;;;;5031396;28;20443;-48
2022/10/04 01:43:04;;;;;;;13.73;2.90;;;13.70;99.90;;;;;;5031749;28;20471;-48
2022/10/04 01:45:36;;;;;;;12.27;3.13;;;14.20;99.90;;;;;;5031719;28;20442;-49
2022/10/04 01:48:07;;;;;;;11.10;2.80;;;14.30;99.90;;;;;;5031699;28;20473;-48
2022/10/04 01:50:39;;;;;;;11.83;3.30;;;14.30;99.90;;;;;;5013558;28;20446;-48
2022/10/04 01:53:13;;;;;;;12.23;3.03;;;14.10;99.90;;;;;;5031838;28;20443;-48
2022/10/04 01:55:46;;;;;;;9.93;3.13;;;14.00;99.90;;;;;;5031609;28;20435;-49
2022/10/04 01:58:16;;;;;;;11.97;2.90;;;14.30;99.90;;;;;;5031505;28;20490;-49
2022/10/04 02:00:46;;;;;;;10.70;3.17;;;14.10;99.90;;;;;;5031329;28;20428;-49
2022/10/04 02:03:17;;;;;;;11.33;2.37;;;14.40;99.90;;;;;;5031697;28;20443;-49
2022/10/04 02:05:50;;;;;;;7.87;3.23;;;14.60;99.90;;;;;;5031751;28;20555;-49
2022/10/04 02:08:21;;;;;;;12.93;3.27;;;14.10;99.90;;;;;;5031454;28;20459;-49
2022/10/04 02:10:51;;;;;;;11.40;3.00;;;14.20;99.90;;;;;;5031460;28;20812;-49
2022/10/04 02:13:18;;;;;;;10.50;3.33;;;14.30;99.90;;;;;;5031598;28;20445;-50
2022/10/04 02:15:47;;;;;;;15.23;3.43;;;13.90;99.90;;;;;;5031353;28;20438;-49
2022/10/04 02:18:16;;;;;;;15.63;4.73;;;14.20;99.90;;;;;;5031276;28;20863;-49
2022/10/04 02:20:44;;;;;;;14.23;3.27;;;14.20;99.90;;;;;;5031954;28;20931;-49
2022/10/04 02:23:12;;;;;;;10.00;3.20;;;14.10;99.90;;;;;;5038391;28;20436;-49
2022/10/04 02:25:39;;;;;;;12.00;2.60;;;14.00;99.90;;;;;;5038052;28;20432;-49
2022/10/04 02:28:10;;;;;;;9.07;3.13;;;14.00;99.90;;;;;;5037755;28;20467;-49
2022/10/04 02:30:38;;;;;;;8.80;3.20;;;13.50;99.90;;;;;;5037677;28;20808;-49
2022/10/04 02:33:04;;;;;;;8.80;2.60;;;13.90;99.90;;;;;;5037892;28;20932;-49
2022/10/04 02:35:34;;;;;;;11.97;2.97;;;13.90;99.90;;;;;;5037816;28;20427;-48
2022/10/04 02:38:10;;;;;;;10.93;3.37;;;13.70;99.90;;;;;;5037751;28;20562;-48
2022/10/04 02:40:44;;;;;;;7.27;2.60;;;13.70;99.90;;;;;;5037548;28;20769;-49
2022/10/04 02:43:18;;;;;;;9.03;2.70;;;13.60;99.90;;;;;;5037633;28;20417;-49
2022/10/04 02:45:52;;;;;;;12.77;3.57;;;13.60;99.90;;;;;;5038271;28;20759;-48
2022/10/04 02:48:28;;;;;;;11.13;3.07;;;13.70;99.90;;;;;;5037767;28;20871;-49
2022/10/04 02:51:01;;;;;;;7.53;2.77;;;13.60;99.90;;;;;;5037536;28;20788;-48
2022/10/04 02:53:32;;;;;;;10.67;3.10;;;13.60;99.90;;;;;;5037617;28;20861;-47
2022/10/04 02:56:02;;;;;;;12.13;2.97;;;13.70;99.90;;;;;;5037550;28;20431;-48
2022/10/04 02:58:30;;;;;;;8.67;2.87;;;13.80;99.90;;;;;;5037287;28;20549;-48
2022/10/04 03:00:59;;;;;;;13.47;3.10;;;14.00;99.90;;;;;;5037536;28;20771;-48
2022/10/04 03:03:28;;;;;;;12.20;2.70;;;13.90;99.90;;;;;;5037580;28;20441;-48
2022/10/04 03:06:04;;;;;;;10.23;3.07;;;13.60;99.90;;;;;;5037509;28;20439;-48
2022/10/04 03:08:34;;;;;;;7.97;2.60;;;13.70;99.90;;;;;;5036982;28;20512;-48
2022/10/04 03:11:04;;;;;;;4.47;2.43;;;13.70;99.90;;;;;;5037455;28;20439;-49
2022/10/04 03:13:33;;;;;;;12.67;3.83;;;13.70;99.90;;;;;;5037540;28;20529;-48
2022/10/04 03:16:00;;;;;;;19.13;3.60;;;14.00;99.90;;;;;;5037475;28;20499;-49
2022/10/04 03:18:27;;;;;;;12.87;3.00;;;13.40;99.90;;;;;;5036733;28;20498;-48
2022/10/04 03:20:54;;;;;;;9.20;2.70;;;13.20;99.90;;;;;;5037487;28;20434;-49
2022/10/04 03:23:21;;;;;;;11.37;3.33;;;13.50;99.90;;;;;;5037270;28;20446;-50
2022/10/04 03:25:52;;;;;;;12.27;3.07;;;13.80;99.90;;;;;;5037345;28;20444;-49
2022/10/04 03:28:19;;;;;;;9.67;3.60;;;13.30;99.90;;;;;;5037312;28;20492;-49
2022/10/04 03:30:48;;;;;;;11.03;3.40;;;13.30;99.90;;;;;;5037150;28;20523;-49
2022/10/04 03:33:20;;;;;;;8.93;2.93;;;13.50;99.90;;;;;;5034856;28;20859;-48
2022/10/04 03:35:51;;;;;;;17.93;4.30;;;13.30;99.90;;;;;;5034102;28;20466;-49
2022/10/04 03:38:19;;;;;;;15.60;4.13;;;13.30;99.90;;;;;;5034408;28;20861;-48
2022/10/04 03:40:52;;;;;;;14.87;4.37;;;13.70;99.90;;;;;;5033919;28;20439;-48
2022/10/04 03:43:21;;;;;;;12.63;3.67;;;13.20;99.90;;;;;;5016305;28;20467;-47
2022/10/04 03:45:51;;;;;;;12.73;3.40;;;13.20;99.90;;;;;;5033718;28;20431;-48
2022/10/04 03:48:27;;;;;;;18.70;4.67;;;13.30;99.90;;;;;;5034120;28;20502;-48
2022/10/04 03:50:54;;;;;;;14.40;3.60;;;13.20;99.90;;;;;;5034012;28;20442;-48
2022/10/04 03:53:29;;;;;;;18.17;5.03;;;12.80;99.90;;;;;;5034460;28;20446;-48
2022/10/04 03:55:58;;;;;;;12.97;3.67;;;12.80;99.90;;;;;;5033736;28;20444;-50
2022/10/04 03:58:26;;;;;;;11.07;3.97;;;12.80;99.90;;;;;;5033156;28;20526;-48
2022/10/04 04:01:13;;;;;;;13.93;3.43;;;13.30;99.90;;;;;;5033883;28;20853;-48
2022/10/04 04:03:51;;;;;;;11.60;3.93;;;13.20;99.90;;;;;;5033949;28;20438;-48
2022/10/04 04:06:19;;;;;;;10.20;3.37;;;13.40;99.90;;;;;;5033589;28;20431;-48
2022/10/04 04:08:49;;;;;;;10.70;3.77;;;13.00;99.90;;;;;;5033316;28;20466;-48
2022/10/04 04:11:21;;;;;;;11.20;4.30;;;13.20;99.90;;;;;;5033423;28;20431;-49
2022/10/04 04:13:52;;;;;;;13.60;3.77;;;13.40;99.90;;;;;;5033563;28;20532;-49
2022/10/04 04:16:24;;;;;;;10.17;3.63;;;13.30;99.90;;;;;;5033352;28;20442;-48
2022/10/04 04:18:53;;;;;;;17.10;5.00;;;13.20;99.90;;;;;;5032921;28;20487;-48
2022/10/04 04:21:22;;;;;;;7.97;3.20;;;13.40;99.90;;;;;;5033376;28;20438;-47
2022/10/04 04:23:52;;;;;;;19.73;4.87;;;13.10;99.90;;;;;;5033303;28;20463;-49
2022/10/04 04:26:26;;;;;;;18.83;4.17;;;13.20;99.90;;;;;;5033379;28;21026;-49
2022/10/04 04:28:56;;;;;;;10.00;4.83;;;12.80;99.90;;;;;;5057078;22;20523;-51
2022/10/04 04:31:27;;;;;;;10.97;3.87;;;13.10;99.90;;;;;;5033727;28;20806;-52
2022/10/04 04:33:59;;;;;;;14.93;4.43;;;13.30;99.90;;;;;;5033916;28;20442;-51
2022/10/04 04:36:27;;;;;;;10.90;4.40;;;12.90;99.90;;;;;;5033597;28;20434;-52
2022/10/04 04:41:39;;;;;;;12.93;3.90;;;12.80;99.90;;;;;;5033578;28;20435;-51
2022/10/04 04:44:16;;;;;;;19.20;6.03;;;12.80;99.90;;;;;;5033314;28;20435;-52
2022/10/04 04:46:44;;;;;;;18.80;5.53;;;13.20;99.90;;;;;;5033418;28;20825;-51
2022/10/04 04:49:14;;;;;;;10.53;3.77;;;13.00;99.90;;;;;;5032809;28;20466;-50
2022/10/04 04:51:46;;;;;;;12.23;4.30;;;12.80;99.90;;;;;;5033301;28;20432;-51
2022/10/04 04:54:14;;;;;;;16.87;4.13;;;13.00;99.90;;;;;;5015513;28;20483;-51
2022/10/04 04:56:43;;;;;;;15.83;3.90;;;12.60;99.90;;;;;;5033189;28;20447;-51
2022/10/04 04:59:11;;;;;;;16.80;4.40;;;13.10;99.90;;;;;;5032505;28;20486;-50
2022/10/04 05:01:45;;;;;;;10.93;4.57;;;12.70;99.90;;;;;;5032955;28;20969;-51
2022/10/04 05:04:18;;;;;;;12.93;4.37;;;12.70;99.90;;;;;;5033272;28;20437;-51
2022/10/04 05:06:47;;;;;;;17.00;4.30;;;12.50;99.90;;;;;;5033046;28;20432;-51
2022/10/04 05:09:23;;;;;;;11.13;4.23;;;12.60;99.90;;;;;;5032398;28;20456;-53
2022/10/04 05:11:53;;;;;;;16.50;6.27;;;13.10;99.90;;;;;;5032590;28;20437;-52
2022/10/04 05:14:20;;;;;;;12.80;4.30;;;12.50;99.90;;;;;;5032716;28;20429;-50
2022/10/04 05:16:50;;;;;;;12.07;3.90;;;12.70;99.90;;;;;;5032536;28;20449;-52
2022/10/04 05:19:21;;;;;;;12.90;4.30;;;13.00;99.90;;;;;;5032171;28;20488;-50
2022/10/04 05:21:49;;;;;;;12.33;4.57;;;12.30;99.90;;;;;;5033096;28;20460;-50
2022/10/04 05:24:23;;;;;;;10.53;4.27;;;12.00;99.90;;;;;;5032279;28;20437;-50
2022/10/04 05:26:52;;;;;;;13.17;3.90;;;12.60;99.90;;;;;;5031945;28;20437;-50
2022/10/04 05:29:21;;;;;;;13.37;4.77;;;12.20;99.90;;;;;;5032171;28;20465;-52
2022/10/04 05:31:55;;;;;;;17.33;4.90;;;12.80;99.90;;;;;;5031974;28;20443;-51
2022/10/04 05:34:24;;;;;;;17.00;6.00;;;12.90;99.90;;;;;;5031874;28;20501;-51
2022/10/04 05:37:19;;;;;;;12.17;4.50;;;12.50;99.90;;;;;;5031771;28;20460;-51
2022/10/04 05:39:53;;;;;;;13.47;4.30;;;12.90;99.90;;;;;;5031415;28;20484;-50
2022/10/04 05:42:25;;;;;;;11.03;4.20;;;12.80;99.90;;;;;;5031687;28;20445;-51
2022/10/04 05:44:54;;;;;;;14.83;5.07;;;12.90;99.90;;;;;;5031440;28;20426;-50
2022/10/04 05:47:26;;;;;;;30.73;6.83;;;12.90;99.90;;;;;;5031449;28;20856;-52
2022/10/04 05:49:56;;;;;;;11.17;3.57;;;12.70;99.90;;;;;;5031382;28;21031;-50
2022/10/04 05:52:29;;;;;;;19.63;6.60;;;12.90;99.90;;;;;;5031891;28;20505;-52
2022/10/04 05:55:25;;;;;;;13.50;4.70;;;13.00;99.90;;;;;;5031781;28;20803;-51
2022/10/04 05:58:09;;;;;;;15.73;6.00;;;13.20;99.90;;;;;;5031470;28;20438;-49
2022/10/04 06:00:44;;;;;;;16.07;3.73;;;13.20;99.90;;;;;;5031295;28;20447;-52
2022/10/04 06:03:37;;;;;;;14.30;3.40;;;12.40;99.90;;;;;;5031884;28;20442;-50
2022/10/04 06:06:15;;;;;;;10.40;3.67;;;13.30;99.90;;;;;;5031729;28;20423;-51
2022/10/04 06:08:51;;;;;;;11.87;3.57;;;13.70;99.90;;;;;;5031085;28;20871;-51
2022/10/04 06:11:29;;;;;;;12.13;3.87;;;13.70;99.90;;;;;;5031936;28;20461;-52
2022/10/04 06:14:29;;;;;;;11.33;3.50;;;14.00;99.90;;;;;;5031838;28;20439;-51
2022/10/04 06:17:21;;;;;;;9.60;3.33;;;14.00;99.90;;;;;;5031675;28;20438;-51
2022/10/04 06:20:24;;;;;;;9.87;4.00;;;13.80;99.90;;;;;;5012904;28;20476;-51
2022/10/04 06:22:57;;;;;;;12.03;4.10;;;14.40;99.90;;;;;;5031580;28;20445;-50
2022/10/04 06:25:28;;;;;;;8.50;3.73;;;14.10;99.90;;;;;;5031031;28;20560;-50
2022/10/04 06:28:00;;;;;;;13.80;3.70;;;14.20;99.90;;;;;;5031363;28;20443;-50
2022/10/04 06:30:30;;;;;;;9.03;4.30;;;14.30;99.90;;;;;;5031028;28;20765;-51
2022/10/04 06:33:23;;;;;;;15.20;3.90;;;14.40;99.90;;;;;;5031243;28;20421;-50
2022/10/04 06:36:32;;;;;;;12.10;3.30;;;14.40;99.90;;;;;;5024639;28;20450;-50
2022/10/04 06:39:32;;;;;;;13.37;3.23;;;14.50;99.90;;;;;;5030662;28;20507;-51
2022/10/04 06:42:20;;;;;;;11.90;3.77;;;14.60;99.90;;;;;;4995699;28;20451;-50
2022/10/04 06:45:09;;;;;;;7.53;2.83;;;14.30;99.90;;;;;;5013237;28;20962;-51
2022/10/04 06:47:59;;;;;;;14.73;3.30;;;15.00;99.90;;;;;;5031303;28;20428;-51
2022/10/04 06:50:34;;;;;;;15.30;4.60;;;14.60;99.90;;;;;;5030843;28;20440;-51
2022/10/04 06:53:24;;;;;;;12.53;3.33;;;14.80;99.90;;;;;;5031262;28;20427;-50
2022/10/04 06:56:30;;;;;;;15.30;4.03;;;14.80;99.90;;;;;;5030937;28;20436;-50
2022/10/04 06:59:30;;;;;;;7.83;3.50;;;14.80;99.90;;;;;;5030562;28;20493;-50
2022/10/04 07:02:00;;;;;;;16.07;4.20;;;14.80;99.90;;;;;;5031031;28;20955;-52
2022/10/04 07:04:35;;;;;;;10.90;3.63;;;15.00;99.90;;;;;;5031006;28;20431;-50
2022/10/04 07:07:25;;;;;;;9.87;3.07;;;14.80;99.90;;;;;;5031095;28;20442;-50
2022/10/04 07:10:01;;;;;;;12.77;4.30;;;14.90;99.90;;;;;;5034365;28;20459;-51
2022/10/04 07:12:28;;;;;;;12.13;4.17;;;14.80;99.90;;;;;;5034571;28;20446;-52
2022/10/04 07:15:00;;;;;;;20.23;4.53;;;14.20;99.90;;;;;;5034832;28;20881;-53
2022/10/04 07:17:31;;;;;;;7.17;3.10;;;14.80;99.90;;;;;;5034791;28;20436;-51
2022/10/04 07:20:00;;;;;;;7.67;2.93;;;14.80;99.90;;;;;;5034328;28;20482;-50
2022/10/04 07:22:32;;;;;;;15.80;3.50;;;15.40;99.90;;;;;;5034587;28;20442;-51
2022/10/04 07:25:13;;;;;;;11.77;3.97;;;14.90;99.90;;;;;;5034661;28;20848;-51
2022/10/04 07:29:19;;;;;;;6.93;3.40;;;14.90;99.90;;;;;;5034550;28;20806;-51
2022/10/04 07:30:40;;;;;;;10.30;4.97;;;14.90;99.90;;;;;;5015693;28;20513;-51
2022/10/04 07:33:12;;;;;;;8.73;3.80;;;15.00;99.90;;;;;;5034243;28;20799;-50
2022/10/04 07:35:46;;;;;;;11.90;4.30;;;15.10;99.90;;;;;;5034466;28;20440;-50
2022/10/04 07:38:19;;;;;;;12.20;3.70;;;15.10;99.90;;;;;;5033994;28;20462;-52
2022/10/04 07:41:02;;;;;;;10.23;3.67;;;15.20;99.90;;;;;;5034251;28;20437;-50
2022/10/04 07:43:32;;;;;;;10.70;3.20;;;15.20;99.90;;;;;;5034528;28;20435;-51
2022/10/04 07:46:04;;;;;;;9.50;3.90;;;15.00;99.90;;;;;;5033855;28;20454;-51
2022/10/04 07:48:31;;;;;;;15.47;3.90;;;15.10;99.90;;;;;;5033753;28;20836;-52
2022/10/04 07:51:04;;;;;;;12.80;4.10;;;15.30;99.90;;;;;;5034076;28;20431;-51
2022/10/04 07:53:38;;;;;;;16.33;4.50;;;15.10;99.90;;;;;;5033924;28;20969;-51
2022/10/04 07:56:11;;;;;;;11.10;4.07;;;15.10;99.90;;;;;;5033743;28;20924;-50
2022/10/04 07:58:46;;;;;;;10.03;4.03;;;14.60;99.90;;;;;;5033228;28;20841;-51
2022/10/04 08:01:23;;;;;;;12.73;4.80;;;15.00;99.90;;;;;;5033819;28;20428;-51
2022/10/04 08:04:01;;;;;;;14.47;5.40;;;15.20;99.90;;;;;;5033921;28;20447;-50
2022/10/04 08:06:36;;;;;;;17.80;5.07;;;15.10;99.90;;;;;;5033170;28;20903;-51
2022/10/04 08:09:19;;;;;;;14.97;4.93;;;14.80;99.90;;;;;;5033397;28;20470;-53
2022/10/04 08:11:56;;;;;;;15.63;6.00;;;15.20;99.90;;;;;;5033669;28;20927;-51
2022/10/04 08:14:34;;;;;;;10.33;4.20;;;15.20;99.90;;;;;;5033785;28;20490;-51
2022/10/04 08:17:15;;;;;;;14.77;5.37;;;15.20;99.90;;;;;;5033530;28;20447;-51
2022/10/04 08:19:56;;;;;;;10.40;4.50;;;15.20;99.90;;;;;;5033130;28;20487;-50
2022/10/04 08:22:32;;;;;;;14.17;3.93;;;15.20;99.90;;;;;;5033665;28;20432;-52
2022/10/04 08:25:05;;;;;;;6.83;3.90;;;15.30;99.90;;;;;;5033506;28;21030;-51
2022/10/04 08:30:48;;;;;;;11.90;4.80;;;15.50;99.90;;;;;;5032924;28;20438;-51
2022/10/04 08:33:27;;;;;;;11.50;4.13;;;15.40;99.90;;;;;;5015794;28;20815;-50
2022/10/04 08:36:05;;;;;;;9.40;5.00;;;15.60;99.90;;;;;;5015151;28;20470;-51
2022/10/04 08:38:43;;;;;;;14.60;5.70;;;15.90;99.90;;;;;;5032495;28;20533;-51
2022/10/04 08:41:36;;;;;;;9.00;6.03;;;15.90;99.90;;;;;;5033217;28;20426;-51
2022/10/04 08:44:44;;;;;;;7.17;4.63;;;15.50;99.90;;;;;;5033639;28;20438;-50
2022/10/04 08:48:00;;;;;;;15.80;6.30;;;15.90;99.90;;;;;;5033037;28;20809;-51
2022/10/04 08:50:58;;;;;;;9.23;5.10;;;16.00;99.90;;;;;;5032551;28;20956;-53
2022/10/04 08:54:00;;;;;;;13.10;5.70;;;16.30;99.90;;;;;;5032477;28;21051;-51
2022/10/04 08:56:43;;;;;;;10.67;6.13;;;16.00;99.90;;;;;;5015046;28;20821;-51
2022/10/04 08:59:49;;;;;;;8.77;4.97;;;16.10;99.90;;;;;;5032588;28;20632;-53
2022/10/04 09:02:52;;;;;;;7.70;4.97;;;16.40;99.90;;;;;;5032751;28;20502;-52
2022/10/04 09:05:50;;;;;;;9.10;5.63;;;16.60;99.90;;;;;;5032969;28;20526;-50
2022/10/04 09:08:52;;;;;;;8.97;5.07;;;16.40;99.90;;;;;;5033112;28;20479;-51
2022/10/04 09:11:43;;;;;;;11.37;5.33;;;16.70;99.90;;;;;;5032144;28;20438;-50
2022/10/04 09:14:30;;;;;;;9.70;4.37;;;16.70;99.90;;;;;;5032895;28;20526;-52
2022/10/04 09:17:07;;;;;;;10.90;5.23;;;16.70;99.90;;;;;;5032530;28;20437;-51
2022/10/04 09:19:46;;;;;;;10.73;4.70;;;16.60;99.90;;;;;;5031931;28;20555;-51
2022/10/04 09:22:25;;;;;;;8.47;4.60;;;16.60;99.90;;;;;;5032726;28;20429;-51
2022/10/04 09:25:17;;;;;;;9.17;4.40;;;17.20;99.90;;;;;;5014344;28;20541;-51
2022/10/04 09:27:59;;;;;;;16.73;5.07;;;16.90;99.90;;;;;;5031689;28;20441;-50
2022/10/04 09:30:34;;;;;;;8.23;4.67;;;17.00;99.90;;;;;;5030868;28;20442;-51
2022/10/04 09:33:18;;;;;;;9.90;5.10;;;16.90;99.90;;;;;;5032127;28;20434;-51
2022/10/04 09:36:10;;;;;;;9.53;3.93;;;17.30;99.90;;;;;;5032154;28;20445;-50
2022/10/04 09:39:04;;;;;;;12.37;3.83;;;17.30;99.90;;;;;;5031341;28;20459;-50
2022/10/04 09:42:19;;;;;;;7.80;4.40;;;17.30;99.90;;;;;;5031872;28;20430;-51
2022/10/04 09:44:57;;;;;;;5.90;3.57;;;17.30;99.90;;;;;;4959031;28;20843;-51
2022/10/04 09:47:30;;;;;;;7.93;4.73;;;17.00;99.90;;;;;;4971249;28;20456;-51
2022/10/04 09:50:25;;;;;;;7.60;3.70;;;16.80;99.90;;;;;;4970514;28;20937;-53
2022/10/04 09:53:01;;;;;;;8.37;4.20;;;17.40;99.90;;;;;;4971046;28;20441;-50
2022/10/04 09:55:48;;;;;;;7.43;3.20;;;17.50;99.90;;;;;;4955226;28;20470;-50
2022/10/04 09:58:42;;;;;;;7.83;2.90;;;17.30;99.90;;;;;;4971145;28;20465;-51
2022/10/04 10:01:16;;;;;;;6.53;3.20;;;17.50;99.90;;;;;;4970785;28;20484;-51
2022/10/04 10:04:10;;;;;;;6.30;3.73;;;17.30;99.90;;;;;;4970656;28;20442;-50
2022/10/04 10:06:50;;;;;;;6.80;3.20;;;17.40;99.90;;;;;;4968517;28;20466;-51
2022/10/04 10:15:27;;;;;;;8.23;3.67;;;17.70;99.90;;;;;;4997506;28;20456;-50
2022/10/04 10:18:02;;;;;;;5.93;3.00;;;17.90;99.90;;;;;;5031203;28;20467;-51
2022/10/04 10:20:54;;;;;;;11.70;3.63;;;18.10;99.90;;;;;;5030852;28;20517;-50
2022/10/04 10:23:36;;;;;;;6.60;3.63;;;18.10;99.90;;;;;;5031385;28;20518;-51
2022/10/04 10:26:26;;;;;;;7.87;2.63;;;18.10;99.90;;;;;;5031745;28;20496;-51
2022/10/04 10:29:22;;;;;;;4.00;2.40;;;18.10;99.90;;;;;;5031980;28;20466;-52
2022/10/04 10:32:08;;;;;;;5.23;2.20;;;18.00;99.90;;;;;;5031302;28;20444;-52
2022/10/04 10:34:59;;;;;;;6.90;2.53;;;18.10;99.90;;;;;;5031631;28;20522;-52
2022/10/04 10:37:39;;;;;;;6.60;2.97;;;18.10;99.90;;;;;;5031818;28;20496;-52
2022/10/04 10:40:44;;;;;;;8.23;2.57;;;18.20;99.90;;;;;;5031074;28;20489;-51
2022/10/04 10:43:31;;;;;;;12.07;3.63;;;18.10;99.90;;;;;;5034292;28;20438;-50
2022/10/04 10:46:18;;;;;;;8.57;3.87;;;18.10;99.90;;;;;;5035288;28;20804;-52
2022/10/04 10:49:07;;;;;;;9.93;3.80;;;18.20;99.90;;;;;;5034522;28;20871;-53
2022/10/04 10:52:13;;;;;;;12.17;3.57;;;18.30;99.90;;;;;;5035199;28;20443;-52
2022/10/04 10:55:06;;;;;;;8.93;3.10;;;18.60;99.90;;;;;;5035293;28;20431;-53
2022/10/04 10:57:55;;;;;;;10.70;3.20;;;18.20;99.90;;;;;;5034844;28;20496;-52
2022/10/04 11:00:23;;;;;;;6.10;2.67;;;18.40;99.90;;;;;;5034450;28;20951;-53
2022/10/04 11:03:29;;;;;;;6.53;3.33;;;18.40;99.90;;;;;;5034903;28;20434;-52
2022/10/04 11:06:16;;;;;;;4.90;2.57;;;18.50;99.90;;;;;;5035202;28;20940;-53
2022/10/04 11:09:17;;;;;;;6.40;3.40;;;18.60;99.90;;;;;;5034421;28;20494;-53
2022/10/04 11:12:05;;;;;;;6.20;2.93;;;18.60;99.90;;;;;;5024587;28;20509;-53
2022/10/04 11:14:55;;;;;;;10.80;3.67;;;18.30;99.90;;;;;;5034304;28;20447;-52
2022/10/04 11:17:54;;;;;;;9.13;2.80;;;18.70;99.90;;;;;;5034381;28;20450;-53
2022/10/04 11:20:49;;;;;;;9.07;3.30;;;18.80;99.90;;;;;;5034053;28;20475;-51
2022/10/04 11:23:36;;;;;;;9.23;4.10;;;18.60;99.90;;;;;;5024215;28;20822;-52
2022/10/04 11:26:40;;;;;;;7.87;3.97;;;18.90;99.90;;;;;;5034145;28;20435;-53
2022/10/04 11:29:20;;;;;;;8.60;3.63;;;18.70;99.90;;;;;;5016314;28;20480;-52
2022/10/04 11:32:29;;;;;;;10.20;3.80;;;18.70;99.90;;;;;;5034381;28;20444;-52
2022/10/04 11:35:24;;;;;;;7.47;3.40;;;19.10;99.90;;;;;;4973037;28;20452;-51
2022/10/04 11:38:06;;;;;;;9.63;3.20;;;19.10;99.90;;;;;;5033807;28;20447;-51
2022/10/04 11:40:54;;;;;;;8.53;3.30;;;18.50;99.90;;;;;;5034057;28;20823;-52
2022/10/04 11:43:46;;;;;;;12.20;3.70;;;19.00;99.90;;;;;;5034283;28;20794;-52
2022/10/04 11:46:22;;;;;;;10.47;3.10;;;18.90;99.90;;;;;;5034093;28;20438;-52
2022/10/04 11:49:01;;;;;;;42.97;6.00;;;18.80;99.90;;;;;;5033441;28;20963;-52
2022/10/04 11:51:58;;;;;;;7.70;4.13;;;18.60;99.90;;;;;;5034120;28;20817;-52
2022/10/04 11:54:55;;;;;;;9.20;3.47;;;18.60;99.90;;;;;;5032651;28;20790;-51
2022/10/04 11:57:38;;;;;;;11.43;4.00;;;18.30;99.90;;;;;;5031355;28;20470;-51
2022/10/04 12:00:14;;;;;;;7.10;3.40;;;18.50;99.90;;;;;;5033360;28;20550;-53
2022/10/04 12:03:26;;;;;;;6.87;2.90;;;18.40;99.90;;;;;;5033602;28;20438;-52
2022/10/04 12:06:03;;;;;;;6.30;2.63;;;18.30;99.90;;;;;;5027171;28;20553;-52
2022/10/04 12:08:42;;;;;;;11.00;4.10;;;18.20;99.90;;;;;;5032604;28;20465;-53
2022/10/04 12:14:25;;;;;;;6.67;2.93;;;18.70;99.90;;;;;;5032338;28;20851;-52
2022/10/04 12:17:22;;;;;;;11.00;3.57;;;18.50;99.90;;;;;;5033332;28;20911;-53
2022/10/04 12:20:04;;;;;;;10.10;3.47;;;18.50;99.90;;;;;;5014975;28;20471;-52
2022/10/04 12:22:59;;;;;;;7.57;3.43;;;18.70;99.90;;;;;;5033380;28;20441;-53
2022/10/04 12:25:49;;;;;;;8.50;3.63;;;18.80;99.90;;;;;;5033482;28;20483;-53
2022/10/04 12:28:49;;;;;;;12.07;3.27;;;18.70;99.90;;;;;;5033046;28;20812;-52
2022/10/04 12:31:28;;;;;;;4.60;2.50;;;18.80;99.90;;;;;;5033340;28;20439;-52
2022/10/04 12:34:07;;;;;;;6.87;2.90;;;18.70;99.90;;;;;;5033446;28;20455;-53
2022/10/04 12:36:49;;;;;;;7.50;2.90;;;18.90;99.90;;;;;;5033425;28;20450;-52
2022/10/04 12:39:29;;;;;;;7.03;3.10;;;18.80;99.90;;;;;;5033055;28;20599;-53
2022/10/04 12:42:07;;;;;;;6.23;2.80;;;18.80;99.90;;;;;;5033043;28;20472;-52
2022/10/04 12:44:48;;;;;;;9.83;2.63;;;18.60;99.90;;;;;;5033384;28;20928;-52
2022/10/04 12:47:44;;;;;;;11.30;3.47;;;18.90;99.90;;;;;;5032838;28;20446;-52
2022/10/04 12:50:19;;;;;;;9.23;2.40;;;18.90;99.90;;;;;;5011229;28;20455;-50
2022/10/04 12:52:53;;;;;;;7.77;3.10;;;18.40;99.90;;;;;;5032588;28;20443;-51
2022/10/04 12:55:40;;;;;;;11.57;3.10;;;18.60;99.90;;;;;;5032586;28;20435;-51
2022/10/04 12:58:14;;;;;;;7.80;2.47;;;18.70;99.90;;;;;;5032858;28;20463;-52
2022/10/04 13:00:44;;;;;;;7.97;2.40;;;19.10;99.90;;;;;;5032167;28;20497;-52
2022/10/04 13:03:22;;;;;;;11.13;4.20;;;18.50;99.90;;;;;;5032040;28;20509;-52
2022/10/04 13:06:01;;;;;;;7.60;3.23;;;19.20;99.90;;;;;;5032898;28;20450;-52
2022/10/04 13:08:38;;;;;;;8.97;3.00;;;19.20;99.90;;;;;;5032020;28;20888;-52
2022/10/04 13:11:26;;;;;;;7.53;2.73;;;19.00;99.80;;;;;;5032395;28;20427;-52
2022/10/04 13:14:24;;;;;;;4.87;2.63;;;19.20;99.80;;;;;;5032551;28;20947;-51
2022/10/04 13:16:58;;;;;;;6.27;3.00;;;19.20;99.70;;;;;;5032259;28;20452;-53
2022/10/04 13:19:34;;;;;;;13.27;3.87;;;19.20;99.60;;;;;;5014103;28;20478;-52
2022/10/04 13:22:21;;;;;;;10.90;3.13;;;18.80;99.30;;;;;;5031817;28;20486;-53
2022/10/04 13:25:04;;;;;;;14.43;3.90;;;19.30;99.20;;;;;;5032150;28;20882;-52
2022/10/04 13:27:45;;;;;;;6.63;2.17;;;19.50;99.30;;;;;;5031850;28;20933;-53
2022/10/04 13:30:22;;;;;;;11.60;3.43;;;19.50;99.20;;;;;;5031585;28;20951;-53
2022/10/04 13:32:58;;;;;;;9.63;4.23;;;19.50;99.00;;;;;;5031695;28;20502;-53
2022/10/04 13:35:30;;;;;;;4.93;2.57;;;19.40;98.90;;;;;;5032349;28;20785;-53
2022/10/04 13:38:33;;;;;;;9.53;2.80;;;19.30;98.80;;;;;;5031976;28;20436;-53
2022/10/04 13:41:14;;;;;;;8.17;2.30;;;19.40;98.30;;;;;;5014287;28;20555;-53
2022/10/04 13:44:30;;;;;;;10.00;2.67;;;19.70;98.70;;;;;;5031964;28;20441;-52
2022/10/04 13:47:18;;;;;;;7.23;3.47;;;19.40;98.40;;;;;;4970712;28;20996;-51
2022/10/04 13:50:03;;;;;;;9.83;2.93;;;19.40;98.60;;;;;;5013780;28;20467;-51
2022/10/04 13:58:40;;;;;;;9.23;4.40;;;19.20;98.50;;;;;;5031355;28;20441;-53
2022/10/04 14:01:43;;;;;;;11.03;3.50;;;19.20;98.30;;;;;;5031294;28;20481;-52
2022/10/04 14:04:27;;;;;;;5.37;2.87;;;19.20;98.30;;;;;;5031525;28;20444;-52